Time;durP1;ratioP1;P1;durP2;ratioP2;P2;SDS_P1;SDS_P2;PMS_P1;PMS_P2;Temp;Humidity;BMP_temperature;BMP_pressure;BME280_temperature;BME280_humidity;BME280_pressure;Samples;Min_cycle;Max_cycle;Signal;HPM_P1;HPM_P2
2021/12/06 00:01:22;;;;;;;13.65;8.13;;;-0.80;99.90;;;;;;5040164;28;20052;-84
2021/12/06 00:04:10;;;;;;;13.68;8.10;;;-0.80;99.90;;;;;;5039854;28;20481;-84
2021/12/06 00:06:42;;;;;;;13.45;8.15;;;-0.80;99.90;;;;;;5057959;28;20083;-84
2021/12/06 00:09:25;;;;;;;18.15;8.60;;;-0.70;99.90;;;;;;5039916;28;20045;-84
2021/12/06 00:11:58;;;;;;;16.67;9.45;;;-0.70;99.90;;;;;;5057891;28;20049;-84
2021/12/06 00:14:28;;;;;;;15.73;8.45;;;-0.60;99.90;;;;;;5039687;28;20049;-84
2021/12/06 00:17:10;;;;;;;18.08;10.15;;;-0.60;99.90;;;;;;5040343;28;20045;-84
2021/12/06 00:19:38;;;;;;;18.23;10.73;;;-0.80;99.90;;;;;;5040495;28;20048;-84
2021/12/06 00:22:09;;;;;;;24.50;10.75;;;-0.80;99.90;;;;;;5058186;28;20143;-84
2021/12/06 00:24:36;;;;;;;14.90;9.18;;;-0.90;99.90;;;;;;5058885;28;20056;-84
2021/12/06 00:27:05;;;;;;;14.68;9.20;;;-0.80;99.90;;;;;;5063960;28;20105;-83
2021/12/06 00:29:41;;;;;;;17.13;10.07;;;-0.60;99.90;;;;;;5045232;28;20139;-84
2021/12/06 00:32:08;;;;;;;16.27;9.02;;;-0.70;99.90;;;;;;5042197;28;20041;-84
2021/12/06 00:34:39;;;;;;;13.88;8.80;;;-0.80;99.90;;;;;;5041686;28;20068;-85
2021/12/06 00:37:19;;;;;;;11.63;6.88;;;-0.90;99.90;;;;;;5059140;28;20052;-85
2021/12/06 00:40:07;;;;;;;13.45;7.60;;;-0.90;99.90;;;;;;5042055;28;20569;-85
2021/12/06 00:42:41;;;;;;;11.25;6.95;;;-0.90;99.90;;;;;;5038265;28;20049;-84
2021/12/06 00:45:09;;;;;;;10.65;7.28;;;-1.00;99.90;;;;;;5038034;28;20049;-85
2021/12/06 00:47:36;;;;;;;13.80;7.78;;;-1.00;99.90;;;;;;5055689;28;20056;-85
2021/12/06 00:50:06;;;;;;;23.48;10.45;;;-1.00;99.90;;;;;;5038000;28;20060;-85
2021/12/06 00:52:37;;;;;;;20.17;10.27;;;-1.00;99.90;;;;;;5038743;28;20045;-84
2021/12/06 00:55:07;;;;;;;18.30;10.82;;;-1.00;99.90;;;;;;5038022;28;20068;-85
2021/12/06 00:57:37;;;;;;;14.20;9.55;;;-1.00;99.90;;;;;;5055868;28;20528;-84
2021/12/06 01:00:13;;;;;;;15.48;9.43;;;-1.00;99.90;;;;;;5037958;28;20057;-84
2021/12/06 01:02:41;;;;;;;16.70;8.95;;;-0.90;99.90;;;;;;5039589;28;20056;-85
2021/12/06 01:05:08;;;;;;;11.50;8.38;;;-0.90;99.90;;;;;;5037914;28;20053;-82
2021/12/06 01:07:40;;;;;;;18.40;9.27;;;-0.80;99.90;;;;;;5036072;28;20044;-82
2021/12/06 01:10:10;;;;;;;17.73;10.73;;;-0.70;99.90;;;;;;5035758;28;20049;-82
2021/12/06 01:12:45;;;;;;;19.33;10.13;;;-0.80;99.90;;;;;;5035829;28;20044;-84
2021/12/06 01:15:17;;;;;;;15.35;9.60;;;-0.70;99.90;;;;;;5035772;28;20053;-84
2021/12/06 01:17:46;;;;;;;16.95;10.98;;;-0.70;99.90;;;;;;5052904;28;20490;-82
2021/12/06 01:20:21;;;;;;;18.30;10.52;;;-0.70;99.90;;;;;;5038784;28;20390;-83
2021/12/06 01:23:01;;;;;;;15.95;9.32;;;-0.80;99.90;;;;;;5042865;28;20049;-85
2021/12/06 01:25:40;;;;;;;12.98;9.02;;;-0.60;99.90;;;;;;5043032;28;20522;-85
2021/12/06 01:31:05;;;;;;;16.13;8.57;;;-0.50;99.90;;;;;;5060902;28;20079;-83
2021/12/06 01:41:42;;;;;;;13.32;8.10;;;-0.50;99.90;;;;;;5120141;28;20150;-82
2021/12/06 01:44:31;;;;;;;15.70;8.13;;;-0.50;99.90;;;;;;5102020;28;20046;-82
2021/12/06 01:47:09;;;;;;;13.17;8.20;;;-0.40;99.90;;;;;;5120059;28;20290;-82
2021/12/06 01:49:40;;;;;;;18.13;9.50;;;-0.40;99.90;;;;;;5118495;28;20552;-82
2021/12/06 01:52:29;;;;;;;14.70;8.43;;;-0.40;99.90;;;;;;5100174;28;20142;-81
2021/12/06 01:54:57;;;;;;;14.55;10.05;;;-0.40;99.90;;;;;;5100717;28;20047;-79
2021/12/06 01:57:26;;;;;;;11.18;8.20;;;-0.50;99.90;;;;;;5118970;28;20090;-82
2021/12/06 01:59:53;;;;;;;17.75;9.43;;;-0.40;99.90;;;;;;5101726;28;20079;-80
2021/12/06 02:02:22;;;;;;;14.77;9.35;;;-0.40;99.90;;;;;;5103630;28;20054;-80
2021/12/06 02:04:49;;;;;;;14.40;9.52;;;-0.40;99.90;;;;;;5126324;28;20047;-83
2021/12/06 02:07:19;;;;;;;21.50;12.13;;;-0.50;99.90;;;;;;5103282;28;20122;-83
2021/12/06 02:09:48;;;;;;;18.35;10.52;;;-0.70;99.90;;;;;;5121282;28;20101;-83
2021/12/06 02:12:16;;;;;;;19.02;11.07;;;-0.80;99.90;;;;;;5101660;28;20099;-83
2021/12/06 02:15:05;;;;;;;16.02;8.93;;;-0.90;99.90;;;;;;5106215;28;20051;-82
2021/12/06 02:17:37;;;;;;;12.98;9.05;;;-0.90;99.90;;;;;;5119741;28;20557;-80
2021/12/06 02:20:09;;;;;;;12.48;8.70;;;-0.80;99.90;;;;;;5104733;28;20043;-80
2021/12/06 02:22:39;;;;;;;18.58;8.90;;;-0.70;99.90;;;;;;5119977;28;20078;-80
2021/12/06 02:25:14;;;;;;;17.52;11.00;;;-0.70;99.90;;;;;;5120841;28;20084;-80
2021/12/06 02:27:40;;;;;;;22.73;11.55;;;-0.80;99.90;;;;;;5100896;28;20075;-80
2021/12/06 02:30:09;;;;;;;15.70;9.30;;;-0.70;99.90;;;;;;5103321;28;20130;-80
2021/12/06 02:32:35;;;;;;;19.90;10.77;;;-0.70;99.90;;;;;;5104211;28;20130;-80
2021/12/06 02:35:04;;;;;;;16.33;9.68;;;-0.60;99.90;;;;;;5103993;28;20067;-83
2021/12/06 02:37:33;;;;;;;26.55;12.05;;;-0.50;99.90;;;;;;5121118;28;20044;-80
2021/12/06 02:40:09;;;;;;;9.88;7.95;;;-0.60;99.90;;;;;;5119738;28;20130;-80
2021/12/06 02:42:37;;;;;;;12.93;7.35;;;-0.50;99.90;;;;;;5125543;28;20071;-80
2021/12/06 02:45:06;;;;;;;11.15;8.20;;;-0.50;99.90;;;;;;5119334;28;20583;-80
2021/12/06 02:47:33;;;;;;;11.25;8.00;;;-0.50;99.90;;;;;;5119986;28;20126;-83
2021/12/06 02:50:06;;;;;;;12.98;7.80;;;-0.60;99.90;;;;;;5100783;28;20067;-82
2021/12/06 02:52:33;;;;;;;;;;;-0.60;99.90;;;;;;5119599;28;20047;-82
2021/12/06 02:55:07;;;;;;;12.05;8.50;;;-0.60;99.90;;;;;;5119855;28;19959;-82
2021/12/06 02:57:37;;;;;;;13.48;8.40;;;-0.60;99.90;;;;;;5101457;28;20130;-83
2021/12/06 03:00:08;;;;;;;13.63;9.27;;;-0.50;99.90;;;;;;5105244;28;20086;-82
2021/12/06 03:02:36;;;;;;;14.30;9.07;;;-0.50;99.90;;;;;;5124351;28;20047;-83
2021/12/06 03:05:04;;;;;;;12.80;8.07;;;-0.50;99.90;;;;;;5104071;28;20052;-83
2021/12/06 03:07:36;;;;;;;12.45;9.13;;;-0.40;99.90;;;;;;5108959;28;20059;-80
2021/12/06 03:10:06;;;;;;;20.58;11.05;;;-0.30;99.90;;;;;;5120944;28;20135;-80
2021/12/06 03:12:33;;;;;;;16.25;9.43;;;-0.20;99.90;;;;;;5120756;28;20055;-80
2021/12/06 03:15:02;;;;;;;14.55;9.27;;;-0.20;99.90;;;;;;5119181;28;20074;-80
2021/12/06 03:17:31;;;;;;;15.85;10.07;;;-0.20;99.90;;;;;;5102678;28;20059;-80
2021/12/06 03:20:00;;;;;;;13.73;9.63;;;-0.20;99.90;;;;;;5120774;28;20043;-83
2021/12/06 03:22:27;;;;;;;13.95;9.57;;;-0.10;99.90;;;;;;5102506;28;20112;-82
2021/12/06 03:24:54;;;;;;;14.90;9.30;;;0.00;99.90;;;;;;5120154;28;20410;-83
2021/12/06 03:27:21;;;;;;;13.27;9.32;;;0.00;99.90;;;;;;5120201;28;20082;-83
2021/12/06 03:29:48;;;;;;;12.85;8.30;;;0.00;99.90;;;;;;5120135;28;20040;-83
2021/12/06 03:32:15;;;;;;;13.20;8.32;;;0.00;99.90;;;;;;5117567;28;20555;-82
2021/12/06 03:34:42;;;;;;;15.43;8.65;;;0.10;99.90;;;;;;5124514;28;20051;-83
2021/12/06 03:37:10;;;;;;;13.75;8.85;;;0.10;99.90;;;;;;5102201;28;20502;-83
2021/12/06 03:39:47;;;;;;;13.35;8.88;;;0.20;99.90;;;;;;5103834;28;20082;-80
2021/12/06 03:42:20;;;;;;;11.82;8.98;;;0.20;99.90;;;;;;5101300;28;20058;-83
2021/12/06 03:44:48;;;;;;;12.85;8.73;;;0.10;99.90;;;;;;5101116;28;20145;-83
2021/12/06 03:47:21;;;;;;;14.05;8.55;;;0.20;99.90;;;;;;5124991;28;20074;-83
2021/12/06 03:49:48;;;;;;;16.77;8.68;;;0.30;99.90;;;;;;5125815;28;20054;-83
2021/12/06 03:52:15;;;;;;;15.32;9.77;;;0.30;99.90;;;;;;5102717;28;20070;-82
2021/12/06 03:54:42;;;;;;;10.70;8.23;;;0.20;99.90;;;;;;5124989;28;20071;-83
2021/12/06 03:57:09;;;;;;;12.30;8.82;;;0.20;99.90;;;;;;5105337;28;20039;-83
2021/12/06 03:59:36;;;;;;;17.98;9.85;;;0.30;99.90;;;;;;5123160;28;20058;-83
2021/12/06 04:02:04;;;;;;;16.58;8.63;;;0.40;99.90;;;;;;5123303;28;20541;-80
2021/12/06 04:04:31;;;;;;;12.60;8.15;;;0.40;99.90;;;;;;5108000;28;20081;-80
2021/12/06 04:06:57;;;;;;;12.38;8.45;;;0.50;99.90;;;;;;5103415;28;20474;-80
2021/12/06 04:09:24;;;;;;;16.38;8.88;;;0.50;99.90;;;;;;5120491;28;20545;-82
2021/12/06 04:11:51;;;;;;;11.05;7.57;;;0.50;99.90;;;;;;5101922;28;20063;-82
2021/12/06 04:14:18;;;;;;;9.25;7.47;;;0.50;99.90;;;;;;5120292;28;20066;-82
2021/12/06 04:16:46;;;;;;;11.10;6.43;;;0.50;99.90;;;;;;5102661;28;20071;-83
2021/12/06 04:19:14;;;;;;;10.10;6.25;;;0.60;99.90;;;;;;5116827;28;20594;-82
2021/12/06 04:21:43;;;;;;;8.52;6.18;;;0.60;99.90;;;;;;5103033;28;20048;-83
2021/12/06 04:24:11;;;;;;;8.13;5.75;;;0.60;99.90;;;;;;5102065;28;20074;-80
2021/12/06 04:26:38;;;;;;;12.57;6.05;;;0.60;99.90;;;;;;5102240;28;20500;-81
2021/12/06 04:29:06;;;;;;;7.25;6.05;;;0.60;99.90;;;;;;5099547;28;20082;-79
2021/12/06 04:31:36;;;;;;;6.63;5.10;;;0.60;99.90;;;;;;5115814;28;20138;-80
2021/12/06 04:34:03;;;;;;;9.88;6.30;;;0.60;99.90;;;;;;5096961;28;20059;-79
2021/12/06 04:36:39;;;;;;;8.77;6.55;;;0.50;99.90;;;;;;5114976;28;20047;-82
2021/12/06 04:39:10;;;;;;;10.73;6.97;;;0.40;99.90;;;;;;5098455;28;20112;-83
2021/12/06 04:41:38;;;;;;;14.02;8.52;;;0.40;99.90;;;;;;5096938;28;20055;-82
2021/12/06 04:44:05;;;;;;;8.88;6.78;;;0.50;99.90;;;;;;5097981;28;20154;-82
2021/12/06 04:46:33;;;;;;;8.50;6.68;;;0.60;99.90;;;;;;5100650;28;20456;-82
2021/12/06 04:49:00;;;;;;;10.27;6.40;;;0.70;99.90;;;;;;5099940;28;20466;-83
2021/12/06 04:51:27;;;;;;;14.30;8.13;;;0.70;99.90;;;;;;5118933;28;20067;-81
2021/12/06 04:53:55;;;;;;;9.48;6.95;;;0.60;99.90;;;;;;5101049;28;20047;-80
2021/12/06 04:56:29;;;;;;;9.60;6.20;;;0.70;99.90;;;;;;5100628;28;20135;-81
2021/12/06 04:59:05;;;;;;;11.32;7.00;;;0.70;99.90;;;;;;5118809;28;20486;-80
2021/12/06 05:01:34;;;;;;;7.63;6.47;;;0.60;99.90;;;;;;5098100;28;20467;-81
2021/12/06 05:04:30;;;;;;;10.07;6.85;;;0.70;99.90;;;;;;5116576;28;20059;-81
2021/12/06 05:07:07;;;;;;;8.98;6.78;;;0.70;99.90;;;;;;5097000;28;20130;-80
2021/12/06 05:09:37;;;;;;;12.98;6.97;;;0.60;99.90;;;;;;5116255;28;20054;-81
2021/12/06 05:12:06;;;;;;;7.53;5.75;;;0.60;99.90;;;;;;5102548;28;20040;-81
2021/12/06 05:14:33;;;;;;;10.55;6.20;;;0.70;99.90;;;;;;5108601;28;20051;-81
2021/12/06 05:16:59;;;;;;;5.22;4.43;;;0.70;99.90;;;;;;5122985;28;20054;-81
2021/12/06 05:19:26;;;;;;;6.20;4.88;;;0.70;99.90;;;;;;5118271;28;20082;-81
2021/12/06 05:21:53;;;;;;;7.90;5.57;;;0.70;99.90;;;;;;5101784;28;20126;-80
2021/12/06 05:24:20;;;;;;;6.22;4.55;;;0.70;99.90;;;;;;5100835;28;20101;-80
2021/12/06 05:26:47;;;;;;;5.75;4.70;;;0.70;99.90;;;;;;5100502;28;20130;-81
2021/12/06 05:29:20;;;;;;;7.63;5.00;;;0.60;99.90;;;;;;5119665;28;20139;-83
2021/12/06 05:31:55;;;;;;;6.05;5.43;;;0.60;99.90;;;;;;5105841;28;20096;-81
2021/12/06 05:34:32;;;;;;;6.22;4.97;;;0.60;99.90;;;;;;5100879;28;20073;-81
2021/12/06 05:36:59;;;;;;;6.57;5.28;;;0.70;99.90;;;;;;5106182;28;20116;-81
2021/12/06 05:39:30;;;;;;;7.75;4.30;;;0.70;99.90;;;;;;5106102;28;20071;-81
2021/12/06 05:42:17;;;;;;;7.38;4.13;;;0.70;99.90;;;;;;5105721;28;20052;-81
2021/12/06 05:44:44;;;;;;;6.78;5.28;;;0.80;99.90;;;;;;5118142;28;20054;-81
2021/12/06 05:47:11;;;;;;;6.85;4.90;;;0.80;99.90;;;;;;5100949;28;20131;-81
2021/12/06 05:49:38;;;;;;;11.32;6.22;;;0.80;99.90;;;;;;5101279;28;20135;-81
2021/12/06 05:52:05;;;;;;;6.32;5.15;;;0.90;99.90;;;;;;5116945;28;20075;-79
2021/12/06 05:54:32;;;;;;;12.43;6.72;;;0.90;99.90;;;;;;5095035;28;20562;-80
2021/12/06 05:57:00;;;;;;;10.63;5.88;;;0.90;99.90;;;;;;5113934;28;20477;-80
2021/12/06 05:59:27;;;;;;;14.10;5.75;;;1.00;99.90;;;;;;5097722;28;20067;-81
2021/12/06 06:01:54;;;;;;;7.90;5.63;;;0.90;99.90;;;;;;5096094;28;20510;-81
2021/12/06 06:04:23;;;;;;;8.48;5.70;;;0.80;99.90;;;;;;5116494;28;20051;-81
2021/12/06 06:06:50;;;;;;;8.25;5.57;;;0.80;99.90;;;;;;5099977;28;20079;-81
2021/12/06 06:09:17;;;;;;;10.77;5.63;;;0.80;99.90;;;;;;5118498;28;20048;-81
2021/12/06 06:11:43;;;;;;;12.05;7.25;;;0.90;99.90;;;;;;5118712;28;20131;-81
2021/12/06 06:14:11;;;;;;;14.57;8.90;;;0.90;99.90;;;;;;5118583;28;20135;-81
2021/12/06 06:16:47;;;;;;;11.38;8.18;;;0.90;99.90;;;;;;5118442;28;20554;-81
2021/12/06 06:19:22;;;;;;;11.52;6.10;;;0.90;99.90;;;;;;5118961;28;20092;-81
2021/12/06 06:21:49;;;;;;;9.32;6.15;;;1.00;99.90;;;;;;5119782;28;20074;-81
2021/12/06 06:24:16;;;;;;;9.13;5.93;;;1.00;99.90;;;;;;5122587;28;20051;-83
2021/12/06 06:26:43;;;;;;;8.23;5.90;;;1.00;99.90;;;;;;5119491;28;20071;-81
2021/12/06 06:29:11;;;;;;;9.20;5.90;;;1.00;99.90;;;;;;5103872;28;20606;-81
2021/12/06 06:31:39;;;;;;;10.63;6.70;;;1.00;99.90;;;;;;5122315;28;20040;-81
2021/12/06 06:34:06;;;;;;;19.30;8.20;;;1.00;99.90;;;;;;5100065;28;20051;-80
2021/12/06 06:36:34;;;;;;;15.75;6.10;;;1.10;99.90;;;;;;5118637;28;20443;-81
2021/12/06 06:39:06;;;;;;;18.27;5.70;;;1.10;99.90;;;;;;5103161;28;20419;-80
2021/12/06 06:41:33;;;;;;;8.77;5.30;;;1.00;99.90;;;;;;5103669;28;20061;-81
2021/12/06 06:43:59;;;;;;;12.32;5.97;;;1.10;99.90;;;;;;5102844;28;20135;-80
2021/12/06 06:46:26;;;;;;;19.15;6.10;;;1.00;99.90;;;;;;5119247;28;20503;-81
2021/12/06 06:48:54;;;;;;;11.85;6.85;;;1.00;99.90;;;;;;5119248;28;20071;-81
2021/12/06 06:51:21;;;;;;;14.55;8.52;;;1.00;99.90;;;;;;5104682;28;20082;-81
2021/12/06 06:53:48;;;;;;;13.63;7.57;;;1.00;99.90;;;;;;5127250;28;20071;-81
2021/12/06 06:56:14;;;;;;;14.52;9.95;;;1.10;99.90;;;;;;5120650;28;20075;-81
2021/12/06 06:58:41;;;;;;;9.18;5.80;;;1.10;99.90;;;;;;5120917;28;20063;-80
2021/12/06 07:01:09;;;;;;;8.93;5.53;;;1.10;99.90;;;;;;5105357;28;20408;-81
2021/12/06 07:03:35;;;;;;;9.25;6.00;;;1.10;99.90;;;;;;5102618;28;20050;-81
2021/12/06 07:06:03;;;;;;;9.57;6.10;;;1.10;99.90;;;;;;5103639;28;20051;-81
2021/12/06 07:08:30;;;;;;;11.23;7.70;;;1.10;99.90;;;;;;5119949;28;20071;-82
2021/12/06 07:10:57;;;;;;;11.40;7.05;;;1.10;99.90;;;;;;5102487;28;20523;-82
2021/12/06 07:13:27;;;;;;;14.85;8.07;;;1.10;99.90;;;;;;5101878;28;20075;-82
2021/12/06 07:15:54;;;;;;;10.38;7.70;;;1.10;99.90;;;;;;5100427;28;20078;-81
2021/12/06 07:18:21;;;;;;;10.50;6.38;;;1.10;99.90;;;;;;5099645;28;20098;-82
2021/12/06 07:20:48;;;;;;;8.10;5.50;;;1.20;99.90;;;;;;5101019;28;20071;-81
2021/12/06 07:23:15;;;;;;;10.38;5.55;;;1.20;99.90;;;;;;5099399;28;20079;-81
2021/12/06 07:25:42;;;;;;;9.90;5.65;;;1.20;99.90;;;;;;5116116;28;20130;-82
2021/12/06 07:28:08;;;;;;;12.45;5.97;;;1.30;99.90;;;;;;5099935;28;20071;-82
2021/12/06 07:30:35;;;;;;;15.00;7.40;;;1.20;99.90;;;;;;5099674;28;20480;-81
2021/12/06 07:33:03;;;;;;;8.77;6.97;;;1.20;99.90;;;;;;5115412;28;20126;-82
2021/12/06 07:35:31;;;;;;;18.40;9.63;;;1.10;99.90;;;;;;5118957;28;20467;-81
2021/12/06 07:38:00;;;;;;;9.70;7.07;;;1.10;99.90;;;;;;5119003;28;20047;-82
2021/12/06 07:40:27;;;;;;;11.65;8.13;;;1.20;99.90;;;;;;5100878;28;20048;-82
2021/12/06 07:42:54;;;;;;;13.73;7.75;;;1.10;99.90;;;;;;5101825;28;20164;-82
2021/12/06 07:45:21;;;;;;;12.23;9.05;;;1.20;99.90;;;;;;5119988;28;20082;-82
2021/12/06 07:47:48;;;;;;;14.13;8.85;;;1.30;99.90;;;;;;5104899;28;20058;-82
2021/12/06 07:50:19;;;;;;;16.30;10.30;;;1.30;99.90;;;;;;5118363;28;20083;-81
2021/12/06 07:52:48;;;;;;;21.75;12.70;;;1.30;99.90;;;;;;5099704;28;20071;-82
2021/12/06 07:55:18;;;;;;;27.17;15.48;;;1.30;99.90;;;;;;5100625;28;20154;-82
2021/12/06 07:57:45;;;;;;;21.92;12.82;;;1.30;99.90;;;;;;5118633;28;20511;-81
2021/12/06 08:00:16;;;;;;;16.27;11.25;;;1.20;99.90;;;;;;5100772;28;20131;-82
2021/12/06 08:02:43;;;;;;;32.55;19.27;;;1.30;99.90;;;;;;5099667;28;20047;-82
2021/12/06 08:05:45;;;;;;;43.85;28.33;;;1.30;99.90;;;;;;5120677;28;20043;-82
2021/12/06 08:08:23;;;;;;;39.05;20.58;;;1.20;99.90;;;;;;5103199;28;20086;-82
2021/12/06 08:10:58;;;;;;;30.33;17.65;;;1.10;99.90;;;;;;5099895;28;20127;-81
2021/12/06 08:13:28;;;;;;;38.40;21.27;;;1.20;99.90;;;;;;5099243;28;20083;-81
2021/12/06 08:15:58;;;;;;;92.05;50.60;;;1.30;99.90;;;;;;5101627;28;20044;-82
2021/12/06 08:18:25;;;;;;;33.85;19.85;;;1.30;99.90;;;;;;5104784;28;20065;-82
2021/12/06 08:20:55;;;;;;;62.15;33.60;;;1.30;99.90;;;;;;5105019;28;20075;-82
2021/12/06 08:23:22;;;;;;;54.42;30.70;;;1.30;99.90;;;;;;5103503;28;20043;-82
2021/12/06 08:25:50;;;;;;;63.20;38.33;;;1.40;99.90;;;;;;5102209;28;20134;-82
2021/12/06 08:28:18;;;;;;;39.50;23.45;;;1.40;99.90;;;;;;5119512;28;20050;-82
2021/12/06 08:30:46;;;;;;;35.88;21.65;;;1.40;99.90;;;;;;5104279;28;20066;-82
2021/12/06 08:33:14;;;;;;;28.13;18.95;;;1.40;99.90;;;;;;5121356;28;20074;-82
2021/12/06 08:35:45;;;;;;;35.60;19.23;;;1.40;99.90;;;;;;5122524;28;20048;-82
2021/12/06 08:38:15;;;;;;;31.27;19.05;;;1.50;99.90;;;;;;5103359;28;20050;-82
2021/12/06 08:40:44;;;;;;;31.35;17.70;;;1.50;99.90;;;;;;5119716;28;20109;-82
2021/12/06 08:43:19;;;;;;;29.13;17.30;;;1.50;99.90;;;;;;5103523;28;20079;-82
2021/12/06 08:45:54;;;;;;;11.90;8.23;;;1.60;99.90;;;;;;5120105;28;20048;-82
2021/12/06 08:48:24;;;;;;;14.05;9.02;;;1.60;99.90;;;;;;5104479;28;20101;-82
2021/12/06 08:50:53;;;;;;;12.43;8.23;;;1.60;99.90;;;;;;5118939;28;20472;-82
2021/12/06 08:53:21;;;;;;;13.00;7.75;;;1.70;99.90;;;;;;5103723;28;20067;-82
2021/12/06 08:55:49;;;;;;;15.30;7.88;;;1.70;99.90;;;;;;5102459;28;20051;-82
2021/12/06 08:58:16;;;;;;;13.15;8.30;;;1.70;99.90;;;;;;5101683;28;20044;-82
2021/12/06 09:00:44;;;;;;;14.20;8.43;;;1.70;99.90;;;;;;5116549;28;20047;-81
2021/12/06 09:03:11;;;;;;;16.95;9.40;;;1.70;99.90;;;;;;5120160;28;20078;-82
2021/12/06 09:05:43;;;;;;;16.02;9.70;;;1.80;99.90;;;;;;5102743;28;20048;-82
2021/12/06 09:08:10;;;;;;;17.70;9.45;;;1.80;99.90;;;;;;5103087;28;20071;-82
2021/12/06 09:10:42;;;;;;;17.85;11.38;;;1.80;99.90;;;;;;5121390;28;20044;-82
2021/12/06 09:13:10;;;;;;;14.60;9.68;;;1.80;99.90;;;;;;5102401;28;20118;-82
2021/12/06 09:15:37;;;;;;;16.90;9.95;;;1.80;99.90;;;;;;5103561;28;20048;-82
2021/12/06 09:18:04;;;;;;;13.63;8.02;;;1.80;99.90;;;;;;5121711;28;20367;-82
2021/12/06 09:20:37;;;;;;;13.70;7.47;;;1.80;99.90;;;;;;5122485;28;20079;-82
2021/12/06 09:23:05;;;;;;;;;;;1.80;99.90;;;;;;5123956;28;20056;-82
2021/12/06 09:25:33;;;;;;;11.32;7.88;;;1.70;99.90;;;;;;5106705;28;19947;-82
2021/12/06 09:28:02;;;;;;;21.23;10.45;;;1.70;99.90;;;;;;5106030;28;20050;-82
2021/12/06 09:30:31;;;;;;;18.98;11.45;;;1.70;99.90;;;;;;5119983;28;20067;-82
2021/12/06 09:33:00;;;;;;;13.57;10.13;;;1.80;99.90;;;;;;5097499;28;20075;-82
2021/12/06 09:35:33;;;;;;;16.83;11.18;;;1.80;99.90;;;;;;5116700;28;20044;-82
2021/12/06 09:37:59;;;;;;;18.27;10.27;;;1.90;99.90;;;;;;5096773;28;20403;-82
2021/12/06 09:40:29;;;;;;;18.27;10.75;;;2.10;99.90;;;;;;5116669;28;20143;-81
2021/12/06 09:42:57;;;;;;;21.85;9.90;;;2.10;99.90;;;;;;5098670;28;20139;-82
2021/12/06 09:45:28;;;;;;;17.77;10.15;;;2.10;99.90;;;;;;5119227;28;20083;-82
2021/12/06 09:47:55;;;;;;;14.43;9.80;;;2.10;99.90;;;;;;5100143;28;20059;-82
2021/12/06 09:50:26;;;;;;;12.55;8.95;;;2.10;99.90;;;;;;5120643;28;20063;-82
2021/12/06 09:52:56;;;;;;;13.95;8.32;;;2.10;99.90;;;;;;5119912;28;20071;-82
2021/12/06 09:55:25;;;;;;;14.13;9.88;;;2.10;99.90;;;;;;5103754;28;20467;-82
2021/12/06 09:57:52;;;;;;;11.93;8.27;;;2.10;99.90;;;;;;5102838;28;20126;-82
2021/12/06 10:00:22;;;;;;;23.85;13.98;;;2.00;99.90;;;;;;5103115;28;20075;-82
2021/12/06 10:02:49;;;;;;;17.33;12.25;;;2.00;99.90;;;;;;5103671;28;20096;-82
2021/12/06 10:05:17;;;;;;;21.98;11.65;;;2.00;99.90;;;;;;5102519;28;20121;-82
2021/12/06 10:07:44;;;;;;;17.80;10.45;;;2.00;99.90;;;;;;5121932;28;20075;-82
2021/12/06 10:10:12;;;;;;;20.10;11.15;;;2.00;99.90;;;;;;5106078;28;20118;-82
2021/12/06 10:12:42;;;;;;;17.83;10.27;;;2.10;99.90;;;;;;5122031;28;20071;-82
2021/12/06 10:15:09;;;;;;;19.17;12.00;;;2.00;99.90;;;;;;5120384;28;20075;-81
2021/12/06 10:17:36;;;;;;;155.57;78.40;;;2.00;99.90;;;;;;5102144;28;20086;-82
2021/12/06 10:20:06;;;;;;;35.42;21.35;;;2.00;99.90;;;;;;5101350;28;20181;-82
2021/12/06 10:22:33;;;;;;;37.85;22.67;;;2.00;99.90;;;;;;5100417;28;20139;-82
2021/12/06 10:25:01;;;;;;;31.60;18.85;;;1.90;99.90;;;;;;5094160;28;20048;-82
2021/12/06 10:27:53;;;;;;;33.70;20.02;;;2.00;99.90;;;;;;5101498;28;20047;-83
2021/12/06 10:30:22;;;;;;;35.83;20.25;;;2.00;99.90;;;;;;5102667;28;20123;-83
2021/12/06 10:32:49;;;;;;;24.58;17.30;;;2.10;99.90;;;;;;5102497;28;20098;-83
2021/12/06 10:35:17;;;;;;;27.23;16.17;;;2.20;99.90;;;;;;5102142;28;20138;-83
2021/12/06 10:37:51;;;;;;;27.75;18.52;;;2.00;99.90;;;;;;5101534;28;20075;-83
2021/12/06 10:40:26;;;;;;;24.42;15.90;;;2.00;99.90;;;;;;5119659;28;20134;-83
2021/12/06 10:42:56;;;;;;;27.60;17.38;;;2.00;99.90;;;;;;5101538;28;20075;-83
2021/12/06 10:45:31;;;;;;;27.50;17.30;;;2.10;99.90;;;;;;5100663;28;20078;-82
2021/12/06 10:48:08;;;;;;;31.65;19.55;;;2.20;99.90;;;;;;5100515;28;20134;-83
2021/12/06 10:50:39;;;;;;;30.63;18.30;;;2.40;99.90;;;;;;5118209;28;20047;-83
2021/12/06 10:53:06;;;;;;;30.98;18.17;;;2.60;99.90;;;;;;5099254;28;20135;-84
2021/12/06 10:55:34;;;;;;;29.48;17.65;;;2.70;99.90;;;;;;5100392;28;20047;-83
2021/12/06 10:58:07;;;;;;;29.58;18.85;;;2.80;99.90;;;;;;5099969;28;20075;-83
2021/12/06 11:00:42;;;;;;;;;;;2.90;99.90;;;;;;5098631;28;20043;-83
2021/12/06 11:03:28;;;;;;;36.13;20.70;;;3.00;99.90;;;;;;5116348;28;19920;-82
2021/12/06 11:06:08;;;;;;;38.63;18.45;;;3.00;99.90;;;;;;5118873;28;20052;-83
2021/12/06 11:08:35;;;;;;;36.30;17.67;;;2.80;99.90;;;;;;5118307;28;20083;-83
2021/12/06 11:11:26;;;;;;;32.00;16.90;;;2.60;99.90;;;;;;5099625;28;20071;-83
2021/12/06 11:13:58;;;;;;;34.38;16.45;;;2.60;99.90;;;;;;5117306;28;20096;-83
2021/12/06 11:16:28;;;;;;;29.50;16.77;;;2.50;99.90;;;;;;5115459;28;20086;-83
2021/12/06 11:19:13;;;;;;;31.88;15.63;;;2.60;99.90;;;;;;5096550;28;20495;-83
2021/12/06 11:21:44;;;;;;;32.10;16.98;;;2.60;99.90;;;;;;5115233;28;20142;-83
2021/12/06 11:24:30;;;;;;;34.97;20.58;;;2.40;99.90;;;;;;5096920;28;20138;-82
2021/12/06 11:26:59;;;;;;;42.75;18.50;;;2.30;99.90;;;;;;5097149;28;20073;-82
2021/12/06 11:29:36;;;;;;;39.75;18.17;;;2.20;99.90;;;;;;5115594;28;20071;-82
2021/12/06 11:32:14;;;;;;;30.23;16.05;;;2.30;99.90;;;;;;5099814;28;20039;-83
2021/12/06 11:34:46;;;;;;;34.90;17.15;;;2.30;99.90;;;;;;5121443;28;20492;-83
2021/12/06 11:37:27;;;;;;;36.35;23.55;;;2.30;99.90;;;;;;5102812;28;20071;-83
2021/12/06 11:40:07;;;;;;;32.50;17.83;;;2.30;99.90;;;;;;5101713;28;20052;-83
2021/12/06 11:42:56;;;;;;;38.08;20.75;;;2.40;99.90;;;;;;5119464;28;20135;-83
2021/12/06 11:45:52;;;;;;;32.58;17.92;;;2.40;99.90;;;;;;5107600;28;20086;-83
2021/12/06 11:48:32;;;;;;;25.20;13.77;;;2.40;99.90;;;;;;5103588;28;20067;-83
2021/12/06 11:51:05;;;;;;;25.27;13.27;;;2.40;99.90;;;;;;5103784;28;20071;-83
2021/12/06 11:53:48;;;;;;;26.73;15.67;;;2.40;99.90;;;;;;5091835;28;20709;-83
2021/12/06 11:56:32;;;;;;;27.33;14.65;;;2.30;99.90;;;;;;5110148;28;20040;-82
2021/12/06 11:59:05;;;;;;;35.15;16.02;;;2.20;99.90;;;;;;5112126;28;20066;-82
2021/12/06 12:01:34;;;;;;;28.40;15.98;;;2.20;99.90;;;;;;5100458;28;20051;-82
2021/12/06 12:04:05;;;;;;;27.83;14.98;;;2.20;99.90;;;;;;5117799;28;20050;-83
2021/12/06 12:06:35;;;;;;;28.70;17.27;;;2.20;99.90;;;;;;5100696;28;20083;-82
2021/12/06 12:09:09;;;;;;;31.20;17.13;;;2.10;99.90;;;;;;5100898;28;20055;-83
2021/12/06 12:11:56;;;;;;;35.35;17.80;;;2.10;99.90;;;;;;5099883;28;20071;-82
2021/12/06 12:14:35;;;;;;;29.48;16.33;;;2.20;99.90;;;;;;5117892;28;20040;-83
2021/12/06 12:17:06;;;;;;;29.35;16.80;;;2.30;99.90;;;;;;5117705;28;20051;-82
2021/12/06 12:19:34;;;;;;;33.30;16.85;;;2.20;99.90;;;;;;5117333;28;20470;-82
2021/12/06 12:22:02;;;;;;;39.08;19.80;;;2.30;99.90;;;;;;5116777;28;20130;-83
2021/12/06 12:24:30;;;;;;;36.40;18.63;;;2.00;99.90;;;;;;5117569;28;20052;-82
2021/12/06 12:27:04;;;;;;;35.55;18.00;;;2.00;99.90;;;;;;5098774;28;20086;-83
2021/12/06 12:29:31;;;;;;;35.28;18.88;;;1.90;99.90;;;;;;5116819;28;20131;-82
2021/12/06 12:32:02;;;;;;;37.85;18.13;;;1.90;99.90;;;;;;5098156;28;20132;-82
2021/12/06 12:34:34;;;;;;;35.22;17.08;;;1.90;99.90;;;;;;5097283;28;20051;-82
2021/12/06 12:37:03;;;;;;;37.05;19.95;;;1.90;99.90;;;;;;5098143;28;20104;-82
2021/12/06 12:39:30;;;;;;;36.38;18.17;;;1.90;99.90;;;;;;5115668;28;20051;-82
2021/12/06 12:42:00;;;;;;;39.28;20.60;;;1.90;99.90;;;;;;5098341;28;20043;-82
2021/12/06 12:45:00;;;;;;;46.50;25.02;;;1.90;99.90;;;;;;5098131;28;20051;-82
2021/12/06 12:47:30;;;;;;;78.70;38.67;;;2.00;99.90;;;;;;5059242;28;20405;-82
2021/12/06 12:50:15;;;;;;;64.65;32.75;;;1.90;99.90;;;;;;5095440;28;20134;-83
2021/12/06 12:52:44;;;;;;;45.17;23.73;;;2.00;99.90;;;;;;5095943;28;20079;-83
2021/12/06 12:55:29;;;;;;;73.35;36.63;;;1.80;99.90;;;;;;5096248;28;20134;-82
2021/12/06 12:58:16;;;;;;;59.03;27.42;;;1.70;99.90;;;;;;5095658;28;20073;-82
2021/12/06 13:00:59;;;;;;;71.35;34.50;;;1.70;99.90;;;;;;5116380;28;20047;-81
2021/12/06 13:03:36;;;;;;;53.05;24.65;;;1.60;99.90;;;;;;5095635;28;20472;-81
2021/12/06 13:06:22;;;;;;;134.90;56.92;;;1.60;99.90;;;;;;5095183;28;20094;-82
2021/12/06 13:08:55;;;;;;;45.42;22.83;;;1.60;99.90;;;;;;5113220;28;20097;-82
2021/12/06 13:11:27;;;;;;;88.75;43.00;;;1.60;99.90;;;;;;5096129;28;20134;-82
2021/12/06 13:13:54;;;;;;;90.35;43.65;;;1.60;99.90;;;;;;5096372;28;20070;-82